Time,TemperatureF,DewpointF,PressureIn,WindDirection,WindDirectionDegrees,WindSpeedMPH,WindSpeedGustMPH,Humidity,HourlyPrecipIn,Conditions,Clouds,dailyrainin,SoftwareType,DateUTC
2013-08-14 00:12:00,75.0,71.0,29.73,NW,315,0.0,0.0,88,0.00,,,0.01,,2013-08-14 05:12:00,
2013-08-14 00:22:00,75.0,71.0,29.73,NW,315,0.0,0.0,88,0.00,,,0.01,,2013-08-14 05:22:00,
2013-08-14 00:42:00,74.0,71.0,29.73,NW,315,0.0,0.0,89,0.00,,,0.01,,2013-08-14 05:42:00,
2013-08-14 00:51:00,74.0,71.0,29.73,NW,315,0.0,0.0,90,0.00,,,0.01,,2013-08-14 05:51:00,
2013-08-14 01:11:00,74.0,71.0,29.73,NW,315,0.0,0.0,91,0.00,,,0.01,,2013-08-14 06:11:00,
2013-08-14 01:21:00,74.0,71.0,29.73,NW,315,0.0,0.0,91,0.00,,,0.01,,2013-08-14 06:21:00,
2013-08-14 01:42:00,74.0,72.0,29.72,NW,315,0.0,0.0,93,0.00,,,0.01,,2013-08-14 06:42:00,
2013-08-14 01:52:00,74.0,72.0,29.73,NW,315,0.0,0.0,93,0.00,,,0.01,,2013-08-14 06:52:00,
2013-08-14 02:11:00,73.0,71.0,29.72,NW,315,0.0,0.0,93,0.00,,,0.01,,2013-08-14 07:11:00,
2013-08-14 02:21:00,73.0,71.0,29.72,NW,315,0.0,0.0,93,0.00,,,0.01,,2013-08-14 07:21:00,
2013-08-14 02:42:00,73.0,71.0,29.72,NW,315,0.0,0.0,95,0.00,,,0.01,,2013-08-14 07:42:00,
2013-08-14 02:52:00,73.0,72.0,29.72,West,270,0.0,0.0,96,0.00,,,0.01,,2013-08-14 07:52:00,
2013-08-14 03:11:00,73.0,72.0,29.73,West,270,0.0,0.0,97,0.00,,,0.01,,2013-08-14 08:11:00,
2013-08-14 03:21:00,74.0,73.0,29.73,West,270,0.0,0.0,97,0.00,,,0.01,,2013-08-14 08:21:00,
2013-08-14 03:42:00,74.0,73.0,29.73,NW,315,0.0,0.0,97,0.00,,,0.01,,2013-08-14 08:42:00,
2013-08-14 03:52:00,74.0,73.0,29.73,North,360,0.0,0.0,97,0.00,,,0.01,,2013-08-14 08:52:00,
2013-08-14 04:02:00,74.0,73.0,29.73,North,360,0.0,0.0,97,0.00,,,0.01,,2013-08-14 09:02:00,
2013-08-14 04:11:00,74.0,73.0,29.73,North,360,0.0,0.0,97,0.00,,,0.01,,2013-08-14 09:11:00,
2013-08-14 04:21:00,74.0,72.0,29.74,NW,315,0.0,0.0,95,0.00,,,0.01,,2013-08-14 09:21:00,
2013-08-14 04:43:00,74.0,72.0,29.74,North,360,0.0,0.0,95,0.00,,,0.01,,2013-08-14 09:43:00,
2013-08-14 04:53:00,74.0,72.0,29.75,NW,315,0.0,0.0,93,0.00,,,0.01,,2013-08-14 09:53:00,
2013-08-14 05:03:00,74.0,72.0,29.75,NW,315,0.0,0.0,93,0.00,,,0.01,,2013-08-14 10:03:00,
2013-08-14 05:12:00,74.0,72.0,29.75,NW,315,0.0,0.0,93,0.00,,,0.01,,2013-08-14 10:12:00,
2013-08-14 05:23:00,74.0,71.0,29.76,North,360,0.0,0.0,91,0.00,,,0.01,,2013-08-14 10:23:00,
2013-08-14 05:32:00,74.0,71.0,29.76,North,360,0.0,0.0,91,0.00,,,0.01,,2013-08-14 10:32:00,
2013-08-14 05:42:00,74.0,71.0,29.76,North,360,0.0,0.0,91,0.00,,,0.01,,2013-08-14 10:42:00,
2013-08-14 05:52:00,74.0,71.0,29.75,NW,315,0.0,0.0,91,0.00,,,0.01,,2013-08-14 10:52:00,
2013-08-14 06:11:00,74.0,71.0,29.75,NW,315,0.0,0.0,91,0.00,,,0.01,,2013-08-14 11:11:00,
2013-08-14 06:21:00,74.0,71.0,29.75,NW,315,0.0,0.0,91,0.00,,,0.01,,2013-08-14 11:21:00,
2013-08-14 06:32:00,74.0,71.0,29.75,NW,315,0.0,0.0,91,0.00,,,0.01,,2013-08-14 11:32:00,
2013-08-14 07:11:00,72.0,70.0,29.77,North,360,0.0,0.0,93,0.00,,,0.01,,2013-08-14 12:11:00,
2013-08-14 07:21:00,72.0,70.0,29.78,NW,315,0.0,0.0,94,0.00,,,0.01,,2013-08-14 12:21:00,
2013-08-14 07:42:00,74.0,72.0,29.77,NW,315,0.0,0.0,95,0.00,,,0.01,,2013-08-14 12:42:00,
2013-08-14 07:52:00,75.0,73.0,29.77,West,270,0.0,0.0,94,0.00,,,0.01,,2013-08-14 12:52:00,
2013-08-14 08:11:00,75.0,71.0,29.78,West,270,0.0,1.0,88,0.00,,,0.01,,2013-08-14 13:11:00,
2013-08-14 08:22:00,75.0,71.0,29.79,West,270,0.0,0.0,87,0.00,,,0.01,,2013-08-14 13:22:00,
2013-08-14 08:52:00,76.0,71.0,29.79,North,360,0.0,0.0,84,0.00,,,0.01,,2013-08-14 13:52:00,
2013-08-14 09:11:00,77.0,69.0,29.80,NE,45,0.0,1.0,77,0.00,,,0.01,,2013-08-14 14:11:00,
2013-08-14 09:21:00,76.0,67.0,29.81,NE,45,0.0,1.0,75,0.00,,,0.01,,2013-08-14 14:21:00,
2013-08-14 09:42:00,76.0,67.0,29.81,WNW,292,0.0,1.0,73,0.00,,,0.01,,2013-08-14 14:42:00,
2013-08-14 09:52:00,77.0,65.0,29.81,NW,315,0.0,1.0,67,0.00,,,0.01,,2013-08-14 14:52:00,
2013-08-14 10:02:00,77.0,65.0,29.81,NW,315,0.0,1.0,67,0.00,,,0.01,,2013-08-14 15:02:00,
2013-08-14 10:11:00,77.0,65.0,29.81,NW,315,0.0,1.0,67,0.00,,,0.01,,2013-08-14 15:11:00,
2013-08-14 10:22:00,80.0,65.0,29.82,NW,315,0.0,1.0,60,0.00,,,0.01,,2013-08-14 15:22:00,
2013-08-14 10:43:00,80.0,64.0,29.82,SW,225,0.0,11.0,58,0.00,,,0.01,,2013-08-14 15:43:00,
2013-08-14 10:57:00,80.0,64.0,29.82,SW,225,0.0,11.0,58,0.00,,,0.01,,2013-08-14 15:57:00,
2013-08-14 11:13:00,80.0,64.0,29.82,North,360,0.0,8.0,59,0.00,,,0.01,,2013-08-14 16:13:00,
2013-08-14 11:28:00,82.0,63.0,29.83,North,360,0.0,2.0,53,0.00,,,0.00,,2013-08-14 16:28:00,
2013-08-14 11:43:00,82.0,63.0,29.82,NW,315,0.0,2.0,52,0.00,,,0.00,,2013-08-14 16:43:00,
2013-08-14 12:04:00,83.0,63.0,29.82,NW,315,2.0,8.0,51,0.00,,,0.00,,2013-08-14 17:04:00,
2013-08-14 12:20:00,81.0,62.0,29.82,NW,315,0.0,2.0,53,0.00,,,0.00,,2013-08-14 17:20:00,
2013-08-14 12:29:00,81.0,62.0,29.82,North,360,3.0,13.0,52,0.00,,,0.00,,2013-08-14 17:29:00,
2013-08-14 12:44:00,81.0,62.0,29.82,NW,315,5.0,9.0,53,0.00,,,0.00,,2013-08-14 17:44:00,
2013-08-14 12:55:00,82.0,62.0,29.82,NW,315,1.0,6.0,51,0.00,,,0.00,,2013-08-14 17:55:00,
2013-08-14 13:06:00,82.0,62.0,29.82,NW,315,1.0,6.0,51,0.00,,,0.00,,2013-08-14 18:06:00,
2013-08-14 13:27:00,82.0,-99.9,29.82,NW,315,1.0,6.0,51,0.00,,,0.00,,2013-08-14 18:27:00,
2013-08-14 13:34:00,84.0,63.0,29.81,WNW,292,0.0,1.0,50,0.00,,,0.00,,2013-08-14 18:34:00,
2013-08-14 14:01:00,84.0,60.0,29.80,NW,315,0.0,13.0,45,0.00,,,0.00,,2013-08-14 19:01:00,
2013-08-14 14:13:00,86.0,61.0,29.80,West,270,0.0,16.0,43,0.00,,,0.00,,2013-08-14 19:13:00,
2013-08-14 14:31:00,86.0,60.0,29.80,North,360,0.0,8.0,42,0.00,,,0.00,,2013-08-14 19:31:00,
2013-08-14 14:42:00,86.0,60.0,29.80,North,360,0.0,8.0,42,0.00,,,0.00,,2013-08-14 19:42:00,
2013-08-14 14:56:00,86.0,60.0,29.80,North,360,0.0,8.0,42,0.00,,,0.00,,2013-08-14 19:56:00,
2013-08-14 15:49:00,87.0,60.0,29.78,WNW,292,0.0,2.0,41,0.00,,,0.00,,2013-08-14 20:49:00,
2013-08-14 16:45:00,88.0,61.0,29.75,North,360,0.0,8.0,40,0.00,,,0.00,,2013-08-14 21:45:00,
2013-08-14 16:55:00,88.0,59.0,29.75,North,360,0.0,2.0,38,0.00,,,0.00,,2013-08-14 21:55:00,
2013-08-14 19:12:00,87.0,58.0,29.75,NW,315,0.0,1.0,37,0.00,,,0.00,,2013-08-15 00:12:00,
2013-08-14 19:23:00,86.0,57.0,29.75,NW,315,0.0,0.0,38,0.00,,,0.00,,2013-08-15 00:23:00,
2013-08-14 19:43:00,83.0,57.0,29.76,NW,315,0.0,1.0,41,0.00,,,0.00,,2013-08-15 00:43:00,
2013-08-14 19:52:00,83.0,58.0,29.76,North,360,0.0,1.0,43,0.00,,,0.00,,2013-08-15 00:52:00,
2013-08-14 20:16:00,80.0,58.0,29.77,NW,315,0.0,0.0,47,0.00,,,0.00,,2013-08-15 01:16:00,
2013-08-14 20:22:00,78.0,59.0,29.78,North,360,0.0,0.0,53,0.00,,,0.00,,2013-08-15 01:22:00,
2013-08-14 20:42:00,77.0,60.0,29.78,West,270,0.0,0.0,55,0.00,,,0.00,,2013-08-15 01:42:00,
2013-08-14 20:52:00,77.0,60.0,29.78,West,270,0.0,0.0,56,0.00,,,0.00,,2013-08-15 01:52:00,
2013-08-14 21:11:00,76.0,60.0,29.78,North,360,0.0,0.0,58,0.00,,,0.00,,2013-08-15 02:11:00,
2013-08-14 21:21:00,74.0,60.0,29.78,NE,45,0.0,0.0,61,0.00,,,0.00,,2013-08-15 02:21:00,
2013-08-14 22:11:00,72.0,60.0,29.81,North,360,0.0,0.0,66,0.00,,,0.00,,2013-08-15 03:11:00,
2013-08-14 22:22:00,72.0,60.0,29.81,North,360,0.0,0.0,66,0.00,,,0.00,,2013-08-15 03:22:00,
2013-08-14 22:53:00,70.0,61.0,29.81,North,360,0.0,0.0,73,0.00,,,0.00,,2013-08-15 03:53:00,
2013-08-14 23:12:00,69.0,61.0,29.81,North,360,0.0,0.0,77,0.00,,,0.00,,2013-08-15 04:12:00,
2013-08-14 23:21:00,69.0,63.0,29.81,North,360,0.0,0.0,80,0.00,,,0.00,,2013-08-15 04:21:00,
2013-08-14 23:23:00,69.0,62.0,29.81,North,360,0.0,0.0,79,0.00,,,0.00,,2013-08-15 04:23:00,
2013-08-14 23:32:00,69.0,62.0,29.81,North,360,0.0,0.0,79,0.00,,,0.00,,2013-08-15 04:32:00,
2013-08-14 23:43:00,69.0,62.0,29.81,North,360,0.0,0.0,79,0.00,,,0.00,,2013-08-15 04:43:00,
2013-08-14 23:52:00,69.0,63.0,29.81,North,360,0.0,0.0,80,0.00,,,0.00,,2013-08-15 04:52:00,